Tuesday, October 16, 2018, 6:32 AM EDT
Back to Local

KTHV, York Airport

Location: Spring Grove, PA, United States Lat: 39.917
Local Time: 6:32 AM EDT (10:32 GMT) Lon: -76.883
Time Zone: US/Eastern Elev: 478 ft

Show me the last for .
Show Decoded

2018-10-16 05:53 METAR KTHV 160953Z AUTO 31008KT 10SM CLR 09/04 A3017 RMK AO2 SLP221 T00940039 =
2018-10-16 04:53 METAR KTHV 160853Z AUTO 31006KT 10SM CLR 10/05 A3014 RMK AO2 SLP209 T01000050
                 53014 =
2018-10-16 03:53 METAR KTHV 160753Z AUTO 31008KT 10SM CLR 11/04 A3013 RMK AO2 SLP203 T01110044 =
2018-10-16 02:53 METAR KTHV 160653Z AUTO 31009KT 10SM CLR 12/04 A3011 RMK AO2 SLP199 T01220044 =
2018-10-16 01:53 METAR KTHV 160553Z AUTO 29010KT 10SM FEW090 13/06 A3010 RMK AO2 SLP195 60000
                 T01330056 10194 20133 51029 =
2018-10-16 00:53 METAR KTHV 160453Z AUTO 30006KT 10SM OVC075 15/09 A3008 RMK AO2 SLP188 T01500089
                 401940111 =
2018-10-15 23:53 METAR KTHV 160353Z AUTO 31011G19KT 10SM FEW030 SCT038 OVC060 16/11 A3006 RMK AO2
                 SLP179 T01560111 =
2018-10-15 22:53 METAR KTHV 160253Z AUTO 31015G22KT 10SM SCT030 SCT037 OVC043 18/13 A3002 RMK AO2
                 RAB25E30 SLP165 P0000 60000 T01780128 53029 =
2018-10-15 22:09 METAR KTHV 160209Z AUTO 28006KT 10SM OVC035 18/14 A2998 RMK AO2 T01830144 =
2018-10-15 21:53 METAR KTHV 160153Z AUTO 28007KT 10SM FEW023 BKN028 OVC033 18/17 A2998 RMK AO2
                 RAB32E44 SLP154 P0000 T01780167 =
2018-10-15 21:36 METAR KTHV 160136Z AUTO 27005G15KT 9SM -RA FEW011 BKN024 OVC042 18/17 A2997 RMK
                 AO2 RAB32 P0000 T01830167 =
2018-10-15 20:53 METAR KTHV 160053Z AUTO 22009KT 10SM BKN045 19/17 A2994 RMK AO2 SLP137 T01940167
                 =
2018-10-15 19:53 METAR KTHV 152353Z AUTO 22011G19KT 10SM FEW060 19/16 A2993 RMK AO2 SLP136 60003
                 T01890161 10189 20167 51002 =
2018-10-15 18:53 METAR KTHV 152253Z AUTO 20013G21KT 10SM SCT060 18/16 A2992 RMK AO2 SLP134
                 T01830161 =
2018-10-15 17:53 METAR KTHV 152153Z AUTO 21010G18KT 10SM BKN050 OVC110 18/16 A2993 RMK AO2 SLP136
                 T01830161 =
2018-10-15 16:53 METAR KTHV 152053Z AUTO 21010G19KT 10SM BKN120 18/16 A2992 RMK AO2 RAB21E31
                 SLP134 P0000 60003 T01830161 56025 =
2018-10-15 15:53 METAR KTHV 151953Z AUTO 21010KT 10SM BKN110 18/16 A2994 RMK AO2 RAE1859B15E28
                 SLP140 P0001 T01830161 =
2018-10-15 14:53 METAR KTHV 151853Z AUTO 21007KT 10SM -RA BKN100 OVC110 17/16 A2997 RMK AO2
                 SLP149 P0002 T01720156 =
2018-10-15 13:53 METAR KTHV 151753Z AUTO 21007KT 7SM -RA OVC110 17/15 A3000 RMK AO2 RAB32 SLP159
                 P0000 60003 T01670150 10172 20144 58017 =
2018-10-15 12:53 METAR KTHV 151653Z AUTO 23006KT 10SM FEW012 17/14 A3002 RMK AO2 SLP167 T01670144
                 =
2018-10-15 12:20 METAR KTHV 151620Z AUTO 21009G18KT 170V240 10SM SCT011 17/14 A3003 RMK AO2
                 T01670144 =
2018-10-15 11:53 METAR KTHV 151553Z AUTO 22007KT 10SM BKN010 17/14 A3003 RMK AO2 CIG 009V013
                 SLP172 T01670144 =
2018-10-15 11:29 METAR KTHV 151529Z AUTO 20008KT 10SM OVC010 16/14 A3003 RMK AO2 CIG 009V013
                 T01610144 =
2018-10-15 11:11 METAR KTHV 151511Z AUTO 21007KT 10SM OVC009 16/14 A3004 RMK AO2 CIG 008V013
                 T01610144 =
2018-10-15 10:53 METAR KTHV 151453Z AUTO 22007KT 10SM OVC010 16/14 A3005 RMK AO2 SLP178 60003
                 T01610144 58010 =
2018-10-15 09:53 METAR KTHV 151353Z AUTO 21008KT 10SM OVC009 15/14 A3005 RMK AO2 SLP179 T01500139
                 =
2018-10-15 08:53 METAR KTHV 151253Z AUTO 23005KT 10SM OVC009 14/13 A3008 RMK AO2 RAB1156E36
                 SLP190 P0003 T01440133 =
2018-10-15 08:12 METAR KTHV 151212Z AUTO 20007KT 180V240 5SM -RA BR OVC009 14/13 A3008 RMK AO2
                 RAB1156 P0001 T01440133 =
2018-10-15 07:53 METAR KTHV 151153Z AUTO 21005KT 8SM OVC010 14/13 A3008 RMK AO2 RAB00E50 SLP188
                 P0000 60001 70008 T01440133 10144 20117 55007 =
2018-10-15 06:53 METAR KTHV 151053Z AUTO VRB05KT 6SM BR OVC014 14/13 A3007 RMK AO2 SLP185
                 T01390128 =

Support USWX by starting your Amazon purchase here.